Terminal Aerodrome Forecast
Issued by NWS Brownsville, TX

Home | Current Version | Previous Version | Text Only | Print | Product List | Glossary On
Versions: 1 2 3 4 5 6 7 8 9 10 11 12 13 14 15 16 17 18 19
000
FTUS44 KBRO 230500
TAFMFE
TAF
KMFE 230520Z 2306/2406 14008KT P6SM SCT250
     FM231900 12011G17KT P6SM SCT250
     FM232300 12014G20KT P6SM SCT250=

USA.gov is the U.S. government's official web portal to all federal, state and local government web resources and services.